sensor_id;sensor_type;location;lat;lon;timestamp;temperature;humidity
80577;DHT22;69937;52.420;10.538;2023-07-20T00:02:22;15.60;69.50
80577;DHT22;69937;52.420;10.538;2023-07-20T00:07:22;15.60;69.30
80577;DHT22;69937;52.420;10.538;2023-07-20T00:12:25;15.60;69.70
80577;DHT22;69937;52.420;10.538;2023-07-20T00:17:25;15.60;69.70
80577;DHT22;69937;52.420;10.538;2023-07-20T00:22:26;15.60;69.50
80577;DHT22;69937;52.420;10.538;2023-07-20T00:27:26;15.60;69.30
80577;DHT22;69937;52.420;10.538;2023-07-20T00:32:27;15.60;69.40
80577;DHT22;69937;52.420;10.538;2023-07-20T00:37:28;15.60;69.60
80577;DHT22;69937;52.420;10.538;2023-07-20T00:42:29;15.50;69.60
80577;DHT22;69937;52.420;10.538;2023-07-20T00:47:30;15.40;69.70
80577;DHT22;69937;52.420;10.538;2023-07-20T00:52:31;15.40;70.00
80577;DHT22;69937;52.420;10.538;2023-07-20T00:57:31;15.30;70.40
80577;DHT22;69937;52.420;10.538;2023-07-20T01:02:32;15.00;71.20
80577;DHT22;69937;52.420;10.538;2023-07-20T01:07:37;14.70;72.00
80577;DHT22;69937;52.420;10.538;2023-07-20T01:12:44;14.70;71.90
80577;DHT22;69937;52.420;10.538;2023-07-20T01:17:46;14.60;72.40
80577;DHT22;69937;52.420;10.538;2023-07-20T01:28:35;14.50;72.90
80577;DHT22;69937;52.420;10.538;2023-07-20T01:33:36;14.40;73.00
80577;DHT22;69937;52.420;10.538;2023-07-20T01:38:37;14.40;73.20
80577;DHT22;69937;52.420;10.538;2023-07-20T01:43:37;14.30;73.30
80577;DHT22;69937;52.420;10.538;2023-07-20T01:48:38;14.30;73.00
80577;DHT22;69937;52.420;10.538;2023-07-20T01:53:38;14.30;73.50
80577;DHT22;69937;52.420;10.538;2023-07-20T01:58:39;14.20;73.70
80577;DHT22;69937;52.420;10.538;2023-07-20T02:03:40;14.10;73.90
80577;DHT22;69937;52.420;10.538;2023-07-20T02:08:40;14.10;74.10
80577;DHT22;69937;52.420;10.538;2023-07-20T02:13:41;14.20;73.90
80577;DHT22;69937;52.420;10.538;2023-07-20T02:18:41;14.20;74.30
80577;DHT22;69937;52.420;10.538;2023-07-20T02:23:42;14.20;74.20
80577;DHT22;69937;52.420;10.538;2023-07-20T02:28:42;14.30;73.80
80577;DHT22;69937;52.420;10.538;2023-07-20T02:33:43;14.30;73.70
80577;DHT22;69937;52.420;10.538;2023-07-20T02:38:44;14.30;73.60
80577;DHT22;69937;52.420;10.538;2023-07-20T02:43:44;14.30;73.80
80577;DHT22;69937;52.420;10.538;2023-07-20T02:48:45;14.30;73.70
80577;DHT22;69937;52.420;10.538;2023-07-20T02:53:45;14.30;73.60
80577;DHT22;69937;52.420;10.538;2023-07-20T02:58:46;14.30;73.50
80577;DHT22;69937;52.420;10.538;2023-07-20T03:03:46;14.20;73.90
80577;DHT22;69937;52.420;10.538;2023-07-20T03:08:47;14.20;73.80
80577;DHT22;69937;52.420;10.538;2023-07-20T03:13:48;14.10;74.00
80577;DHT22;69937;52.420;10.538;2023-07-20T03:18:49;14.00;74.30
80577;DHT22;69937;52.420;10.538;2023-07-20T03:23:50;14.00;74.20
80577;DHT22;69937;52.420;10.538;2023-07-20T03:28:50;13.90;74.50
80577;DHT22;69937;52.420;10.538;2023-07-20T03:33:51;14.00;74.40
80577;DHT22;69937;52.420;10.538;2023-07-20T03:38:52;14.00;74.50
80577;DHT22;69937;52.420;10.538;2023-07-20T03:43:52;14.00;74.50
80577;DHT22;69937;52.420;10.538;2023-07-20T03:48:53;13.90;74.60
80577;DHT22;69937;52.420;10.538;2023-07-20T03:53:53;14.00;74.10
80577;DHT22;69937;52.420;10.538;2023-07-20T03:58:54;14.10;74.00
80577;DHT22;69937;52.420;10.538;2023-07-20T04:03:54;14.00;74.10
80577;DHT22;69937;52.420;10.538;2023-07-20T04:08:55;14.10;74.00
80577;DHT22;69937;52.420;10.538;2023-07-20T04:13:56;14.20;73.60
80577;DHT22;69937;52.420;10.538;2023-07-20T04:18:57;14.40;73.30
80577;DHT22;69937;52.420;10.538;2023-07-20T04:23:57;14.40;73.20
80577;DHT22;69937;52.420;10.538;2023-07-20T04:28:58;14.50;73.00
80577;DHT22;69937;52.420;10.538;2023-07-20T04:33:59;14.60;72.70
80577;DHT22;69937;52.420;10.538;2023-07-20T04:39:00;14.70;72.50
80577;DHT22;69937;52.420;10.538;2023-07-20T04:44:00;14.90;72.20
80577;DHT22;69937;52.420;10.538;2023-07-20T04:49:01;14.90;72.20
80577;DHT22;69937;52.420;10.538;2023-07-20T04:54:02;15.00;72.10
80577;DHT22;69937;52.420;10.538;2023-07-20T04:59:02;15.00;71.80
80577;DHT22;69937;52.420;10.538;2023-07-20T05:04:03;15.00;71.50
80577;DHT22;69937;52.420;10.538;2023-07-20T05:09:03;15.20;71.20
80577;DHT22;69937;52.420;10.538;2023-07-20T05:14:04;15.10;71.50
80577;DHT22;69937;52.420;10.538;2023-07-20T05:19:04;15.20;71.80
80577;DHT22;69937;52.420;10.538;2023-07-20T05:24:05;15.20;71.40
80577;DHT22;69937;52.420;10.538;2023-07-20T05:29:06;15.20;71.10
80577;DHT22;69937;52.420;10.538;2023-07-20T05:34:06;15.20;71.30
80577;DHT22;69937;52.420;10.538;2023-07-20T05:39:07;15.10;71.70
80577;DHT22;69937;52.420;10.538;2023-07-20T05:44:07;15.00;72.60
80577;DHT22;69937;52.420;10.538;2023-07-20T05:49:08;14.90;72.80
80577;DHT22;69937;52.420;10.538;2023-07-20T05:54:09;14.80;72.90
80577;DHT22;69937;52.420;10.538;2023-07-20T05:59:09;14.70;73.20
80577;DHT22;69937;52.420;10.538;2023-07-20T06:04:10;14.80;73.70
80577;DHT22;69937;52.420;10.538;2023-07-20T06:09:10;14.70;74.70
80577;DHT22;69937;52.420;10.538;2023-07-20T06:14:12;14.70;75.20
80577;DHT22;69937;52.420;10.538;2023-07-20T06:19:13;14.60;75.60
80577;DHT22;69937;52.420;10.538;2023-07-20T06:24:13;14.70;76.00
80577;DHT22;69937;52.420;10.538;2023-07-20T06:29:14;14.60;75.60
80577;DHT22;69937;52.420;10.538;2023-07-20T06:34:14;14.70;75.90
80577;DHT22;69937;52.420;10.538;2023-07-20T06:39:15;14.60;75.90
80577;DHT22;69937;52.420;10.538;2023-07-20T06:44:15;14.70;76.20
80577;DHT22;69937;52.420;10.538;2023-07-20T06:49:28;14.80;75.20
80577;DHT22;69937;52.420;10.538;2023-07-20T06:54:29;14.90;74.60
80577;DHT22;69937;52.420;10.538;2023-07-20T06:59:29;14.90;73.90
80577;DHT22;69937;52.420;10.538;2023-07-20T07:04:30;14.90;73.30
80577;DHT22;69937;52.420;10.538;2023-07-20T07:09:30;15.00;73.10
80577;DHT22;69937;52.420;10.538;2023-07-20T07:14:31;15.00;72.70
80577;DHT22;69937;52.420;10.538;2023-07-20T07:19:31;15.30;72.50
80577;DHT22;69937;52.420;10.538;2023-07-20T07:24:32;15.40;71.60
80577;DHT22;69937;52.420;10.538;2023-07-20T07:29:35;15.60;70.90
80577;DHT22;69937;52.420;10.538;2023-07-20T07:34:36;16.00;68.60
80577;DHT22;69937;52.420;10.538;2023-07-20T07:39:37;16.40;68.70
80577;DHT22;69937;52.420;10.538;2023-07-20T07:44:37;16.60;66.10
80577;DHT22;69937;52.420;10.538;2023-07-20T07:49:38;16.70;64.30
80577;DHT22;69937;52.420;10.538;2023-07-20T07:54:38;16.70;64.60
80577;DHT22;69937;52.420;10.538;2023-07-20T07:59:39;17.00;65.50
80577;DHT22;69937;52.420;10.538;2023-07-20T08:04:40;17.10;65.50
80577;DHT22;69937;52.420;10.538;2023-07-20T08:09:41;17.20;65.10
80577;DHT22;69937;52.420;10.538;2023-07-20T08:14:41;17.50;64.00
80577;DHT22;69937;52.420;10.538;2023-07-20T08:19:42;17.80;64.00
80577;DHT22;69937;52.420;10.538;2023-07-20T08:24:43;17.80;63.80
80577;DHT22;69937;52.420;10.538;2023-07-20T08:29:44;18.30;63.50
80577;DHT22;69937;52.420;10.538;2023-07-20T08:34:44;18.30;62.10
80577;DHT22;69937;52.420;10.538;2023-07-20T08:39:45;18.10;61.80
80577;DHT22;69937;52.420;10.538;2023-07-20T08:44:48;18.10;62.00
80577;DHT22;69937;52.420;10.538;2023-07-20T08:49:49;18.20;61.90
80577;DHT22;69937;52.420;10.538;2023-07-20T08:54:50;17.80;62.80
80577;DHT22;69937;52.420;10.538;2023-07-20T08:59:53;17.80;62.30
80577;DHT22;69937;52.420;10.538;2023-07-20T09:04:54;17.80;60.30
80577;DHT22;69937;52.420;10.538;2023-07-20T09:09:57;18.30;60.90
80577;DHT22;69937;52.420;10.538;2023-07-20T09:14:58;18.80;58.30
80577;DHT22;69937;52.420;10.538;2023-07-20T09:20:02;19.10;57.30
80577;DHT22;69937;52.420;10.538;2023-07-20T09:25:16;19.60;56.20
80577;DHT22;69937;52.420;10.538;2023-07-20T09:30:16;19.50;56.20
80577;DHT22;69937;52.420;10.538;2023-07-20T09:35:19;20.50;55.20
80577;DHT22;69937;52.420;10.538;2023-07-20T09:40:20;21.00;54.90
80577;DHT22;69937;52.420;10.538;2023-07-20T09:45:21;21.50;50.30
80577;DHT22;69937;52.420;10.538;2023-07-20T09:50:23;21.50;49.50
80577;DHT22;69937;52.420;10.538;2023-07-20T09:55:25;21.40;50.30
80577;DHT22;69937;52.420;10.538;2023-07-20T10:00:26;21.30;49.60
80577;DHT22;69937;52.420;10.538;2023-07-20T10:05:28;20.60;50.00
80577;DHT22;69937;52.420;10.538;2023-07-20T10:10:33;20.50;51.40
80577;DHT22;69937;52.420;10.538;2023-07-20T10:15:37;21.30;50.30
80577;DHT22;69937;52.420;10.538;2023-07-20T10:20:41;22.10;50.20
80577;DHT22;69937;52.420;10.538;2023-07-20T10:25:42;21.90;47.70
80577;DHT22;69937;52.420;10.538;2023-07-20T10:30:43;22.40;47.50
80577;DHT22;69937;52.420;10.538;2023-07-20T10:35:51;23.00;46.20
80577;DHT22;69937;52.420;10.538;2023-07-20T10:40:55;23.10;45.60
80577;DHT22;69937;52.420;10.538;2023-07-20T10:45:57;22.30;46.20
80577;DHT22;69937;52.420;10.538;2023-07-20T10:51:12;22.50;48.00
80577;DHT22;69937;52.420;10.538;2023-07-20T10:56:19;22.70;47.00
80577;DHT22;69937;52.420;10.538;2023-07-20T11:01:20;22.60;47.00
80577;DHT22;69937;52.420;10.538;2023-07-20T11:11:30;21.70;48.60
80577;DHT22;69937;52.420;10.538;2023-07-20T11:21:37;22.60;47.30
80577;DHT22;69937;52.420;10.538;2023-07-20T11:31:43;23.30;45.30
80577;DHT22;69937;52.420;10.538;2023-07-20T11:36:49;23.70;44.90
80577;DHT22;69937;52.420;10.538;2023-07-20T11:41:51;23.50;44.70
80577;DHT22;69937;52.420;10.538;2023-07-20T11:47:08;23.00;46.00
80577;DHT22;69937;52.420;10.538;2023-07-20T11:52:11;24.00;43.90
80577;DHT22;69937;52.420;10.538;2023-07-20T11:57:18;24.50;42.80
80577;DHT22;69937;52.420;10.538;2023-07-20T12:02:19;24.80;41.90
80577;DHT22;69937;52.420;10.538;2023-07-20T12:07:19;24.00;43.30
80577;DHT22;69937;52.420;10.538;2023-07-20T12:12:20;23.50;43.30
80577;DHT22;69937;52.420;10.538;2023-07-20T12:17:21;23.20;44.00
80577;DHT22;69937;52.420;10.538;2023-07-20T12:22:21;24.40;42.60
80577;DHT22;69937;52.420;10.538;2023-07-20T12:27:21;24.80;41.60
80577;DHT22;69937;52.420;10.538;2023-07-20T12:32:22;24.70;41.00
80577;DHT22;69937;52.420;10.538;2023-07-20T12:37:23;24.10;42.30
80577;DHT22;69937;52.420;10.538;2023-07-20T12:42:23;23.20;43.30
80577;DHT22;69937;52.420;10.538;2023-07-20T12:47:24;22.30;44.70
80577;DHT22;69937;52.420;10.538;2023-07-20T12:52:24;22.70;44.70
80577;DHT22;69937;52.420;10.538;2023-07-20T12:57:25;24.40;42.50
80577;DHT22;69937;52.420;10.538;2023-07-20T13:02:26;24.00;41.70
80577;DHT22;69937;52.420;10.538;2023-07-20T13:07:33;23.50;42.40
80577;DHT22;69937;52.420;10.538;2023-07-20T13:12:35;23.60;42.80
80577;DHT22;69937;52.420;10.538;2023-07-20T13:17:39;23.90;42.60
80577;DHT22;69937;52.420;10.538;2023-07-20T13:22:40;25.30;42.10
80577;DHT22;69937;52.420;10.538;2023-07-20T13:27:41;25.80;40.80
80577;DHT22;69937;52.420;10.538;2023-07-20T13:32:41;24.60;41.50
80577;DHT22;69937;52.420;10.538;2023-07-20T13:37:42;23.70;41.80
80577;DHT22;69937;52.420;10.538;2023-07-20T13:42:42;24.20;41.30
80577;DHT22;69937;52.420;10.538;2023-07-20T13:47:43;23.90;41.60
80577;DHT22;69937;52.420;10.538;2023-07-20T13:52:43;23.30;42.30
80577;DHT22;69937;52.420;10.538;2023-07-20T13:57:44;22.90;43.40
80577;DHT22;69937;52.420;10.538;2023-07-20T14:02:45;22.50;43.90
80577;DHT22;69937;52.420;10.538;2023-07-20T14:07:45;22.20;44.60
80577;DHT22;69937;52.420;10.538;2023-07-20T14:12:46;21.90;45.10
80577;DHT22;69937;52.420;10.538;2023-07-20T14:17:46;21.80;45.20
80577;DHT22;69937;52.420;10.538;2023-07-20T14:22:47;21.70;45.40
80577;DHT22;69937;52.420;10.538;2023-07-20T14:27:48;21.50;45.70
80577;DHT22;69937;52.420;10.538;2023-07-20T14:32:49;21.60;45.80
80577;DHT22;69937;52.420;10.538;2023-07-20T14:37:49;21.70;46.80
80577;DHT22;69937;52.420;10.538;2023-07-20T14:42:50;22.10;47.20
80577;DHT22;69937;52.420;10.538;2023-07-20T14:47:52;22.80;46.00
80577;DHT22;69937;52.420;10.538;2023-07-20T14:52:54;23.30;45.40
80577;DHT22;69937;52.420;10.538;2023-07-20T14:57:55;24.00;44.90
80577;DHT22;69937;52.420;10.538;2023-07-20T15:02:56;24.40;44.20
80577;DHT22;69937;52.420;10.538;2023-07-20T15:07:56;25.00;44.20
80577;DHT22;69937;52.420;10.538;2023-07-20T15:12:57;25.50;43.60
80577;DHT22;69937;52.420;10.538;2023-07-20T15:17:57;24.90;43.60
80577;DHT22;69937;52.420;10.538;2023-07-20T15:22:58;24.60;43.80
80577;DHT22;69937;52.420;10.538;2023-07-20T15:27:58;24.40;44.60
80577;DHT22;69937;52.420;10.538;2023-07-20T15:32:59;23.90;44.40
80577;DHT22;69937;52.420;10.538;2023-07-20T15:37:59;23.90;44.40
80577;DHT22;69937;52.420;10.538;2023-07-20T15:43:00;24.20;45.10
80577;DHT22;69937;52.420;10.538;2023-07-20T15:48:00;24.60;44.60
80577;DHT22;69937;52.420;10.538;2023-07-20T15:53:01;24.40;43.30
80577;DHT22;69937;52.420;10.538;2023-07-20T15:58:02;24.40;42.90
80577;DHT22;69937;52.420;10.538;2023-07-20T16:03:03;24.80;43.70
80577;DHT22;69937;52.420;10.538;2023-07-20T16:08:03;24.80;43.20
80577;DHT22;69937;52.420;10.538;2023-07-20T16:13:05;24.40;42.60
80577;DHT22;69937;52.420;10.538;2023-07-20T16:18:05;24.70;41.90
80577;DHT22;69937;52.420;10.538;2023-07-20T16:23:06;24.60;42.50
80577;DHT22;69937;52.420;10.538;2023-07-20T16:28:07;24.00;43.60
80577;DHT22;69937;52.420;10.538;2023-07-20T16:33:10;23.80;44.30
80577;DHT22;69937;52.420;10.538;2023-07-20T16:38:11;23.50;44.90
80577;DHT22;69937;52.420;10.538;2023-07-20T16:43:12;23.50;45.50
80577;DHT22;69937;52.420;10.538;2023-07-20T16:48:12;23.30;44.90
80577;DHT22;69937;52.420;10.538;2023-07-20T16:53:13;23.60;44.90
80577;DHT22;69937;52.420;10.538;2023-07-20T16:58:13;23.50;44.50
80577;DHT22;69937;52.420;10.538;2023-07-20T17:03:15;23.10;45.30
80577;DHT22;69937;52.420;10.538;2023-07-20T17:08:15;22.70;45.80
80577;DHT22;69937;52.420;10.538;2023-07-20T17:13:16;22.50;45.90
80577;DHT22;69937;52.420;10.538;2023-07-20T17:18:17;22.30;46.40
80577;DHT22;69937;52.420;10.538;2023-07-20T17:23:18;22.10;46.70
80577;DHT22;69937;52.420;10.538;2023-07-20T17:28:19;21.90;46.70
80577;DHT22;69937;52.420;10.538;2023-07-20T17:33:19;21.90;47.10
80577;DHT22;69937;52.420;10.538;2023-07-20T17:38:20;21.50;47.90
80577;DHT22;69937;52.420;10.538;2023-07-20T17:43:21;21.50;47.90
80577;DHT22;69937;52.420;10.538;2023-07-20T17:48:22;21.40;48.00
80577;DHT22;69937;52.420;10.538;2023-07-20T17:53:22;21.40;48.20
80577;DHT22;69937;52.420;10.538;2023-07-20T17:58:23;21.30;48.30
80577;DHT22;69937;52.420;10.538;2023-07-20T18:03:24;21.20;49.10
80577;DHT22;69937;52.420;10.538;2023-07-20T18:08:24;21.20;48.90
80577;DHT22;69937;52.420;10.538;2023-07-20T18:13:26;21.10;48.80
80577;DHT22;69937;52.420;10.538;2023-07-20T18:18:26;21.10;49.80
80577;DHT22;69937;52.420;10.538;2023-07-20T18:23:27;20.90;49.50
80577;DHT22;69937;52.420;10.538;2023-07-20T18:28:28;20.60;49.70
80577;DHT22;69937;52.420;10.538;2023-07-20T18:33:29;20.50;49.80
80577;DHT22;69937;52.420;10.538;2023-07-20T18:38:29;20.30;49.80
80577;DHT22;69937;52.420;10.538;2023-07-20T18:43:30;20.00;50.50
80577;DHT22;69937;52.420;10.538;2023-07-20T18:48:30;19.70;51.20
80577;DHT22;69937;52.420;10.538;2023-07-20T18:53:31;19.50;51.20
80577;DHT22;69937;52.420;10.538;2023-07-20T18:58:32;19.40;51.80
80577;DHT22;69937;52.420;10.538;2023-07-20T19:03:33;19.20;53.30
80577;DHT22;69937;52.420;10.538;2023-07-20T19:08:34;19.00;53.70
80577;DHT22;69937;52.420;10.538;2023-07-20T19:13:35;18.80;54.10
80577;DHT22;69937;52.420;10.538;2023-07-20T19:18:36;18.60;54.00
80577;DHT22;69937;52.420;10.538;2023-07-20T19:23:38;18.30;54.60
80577;DHT22;69937;52.420;10.538;2023-07-20T19:28:40;18.10;55.10
80577;DHT22;69937;52.420;10.538;2023-07-20T19:33:40;18.00;55.10
80577;DHT22;69937;52.420;10.538;2023-07-20T19:38:41;17.80;55.70
80577;DHT22;69937;52.420;10.538;2023-07-20T19:43:42;17.60;55.90
80577;DHT22;69937;52.420;10.538;2023-07-20T19:48:45;17.50;56.10
80577;DHT22;69937;52.420;10.538;2023-07-20T19:53:45;17.20;56.50
80577;DHT22;69937;52.420;10.538;2023-07-20T19:58:47;17.10;56.50
80577;DHT22;69937;52.420;10.538;2023-07-20T20:03:48;16.90;57.10
80577;DHT22;69937;52.420;10.538;2023-07-20T20:08:48;16.60;57.70
80577;DHT22;69937;52.420;10.538;2023-07-20T20:13:49;16.50;58.20
80577;DHT22;69937;52.420;10.538;2023-07-20T20:18:50;16.30;58.40
80577;DHT22;69937;52.420;10.538;2023-07-20T20:23:51;16.10;58.80
80577;DHT22;69937;52.420;10.538;2023-07-20T20:28:51;16.10;59.00
80577;DHT22;69937;52.420;10.538;2023-07-20T20:33:52;16.00;59.40
80577;DHT22;69937;52.420;10.538;2023-07-20T20:38:52;16.00;59.20
80577;DHT22;69937;52.420;10.538;2023-07-20T20:43:53;15.80;59.90
80577;DHT22;69937;52.420;10.538;2023-07-20T20:48:54;15.60;60.10
80577;DHT22;69937;52.420;10.538;2023-07-20T20:53:54;15.30;60.70
80577;DHT22;69937;52.420;10.538;2023-07-20T20:58:55;15.00;61.30
80577;DHT22;69937;52.420;10.538;2023-07-20T21:03:55;14.80;61.60
80577;DHT22;69937;52.420;10.538;2023-07-20T21:08:56;14.60;62.40
80577;DHT22;69937;52.420;10.538;2023-07-20T21:13:56;14.50;62.40
80577;DHT22;69937;52.420;10.538;2023-07-20T21:18:57;14.40;62.90
80577;DHT22;69937;52.420;10.538;2023-07-20T21:23:57;14.40;63.20
80577;DHT22;69937;52.420;10.538;2023-07-20T21:28:58;14.40;63.10
80577;DHT22;69937;52.420;10.538;2023-07-20T21:33:58;14.20;63.10
80577;DHT22;69937;52.420;10.538;2023-07-20T21:38:59;14.20;63.30
80577;DHT22;69937;52.420;10.538;2023-07-20T21:44:00;14.10;63.60
80577;DHT22;69937;52.420;10.538;2023-07-20T21:49:00;13.90;64.10
80577;DHT22;69937;52.420;10.538;2023-07-20T21:54:03;13.90;64.60
80577;DHT22;69937;52.420;10.538;2023-07-20T21:59:05;13.90;64.90
80577;DHT22;69937;52.420;10.538;2023-07-20T22:04:05;13.90;65.10
80577;DHT22;69937;52.420;10.538;2023-07-20T22:09:08;13.70;64.50
80577;DHT22;69937;52.420;10.538;2023-07-20T22:14:09;13.60;65.10
80577;DHT22;69937;52.420;10.538;2023-07-20T22:19:10;13.60;64.70
80577;DHT22;69937;52.420;10.538;2023-07-20T22:24:10;13.50;64.70
80577;DHT22;69937;52.420;10.538;2023-07-20T22:29:11;13.30;65.10
80577;DHT22;69937;52.420;10.538;2023-07-20T22:34:12;13.30;65.50
80577;DHT22;69937;52.420;10.538;2023-07-20T22:39:12;13.10;65.20
80577;DHT22;69937;52.420;10.538;2023-07-20T22:44:13;12.90;65.40
80577;DHT22;69937;52.420;10.538;2023-07-20T22:49:16;12.80;65.60
80577;DHT22;69937;52.420;10.538;2023-07-20T22:54:16;12.80;66.70
80577;DHT22;69937;52.420;10.538;2023-07-20T22:59:17;12.70;66.50
80577;DHT22;69937;52.420;10.538;2023-07-20T23:04:18;12.70;67.20
80577;DHT22;69937;52.420;10.538;2023-07-20T23:09:18;12.50;66.80
80577;DHT22;69937;52.420;10.538;2023-07-20T23:14:19;12.50;66.50
80577;DHT22;69937;52.420;10.538;2023-07-20T23:19:19;12.20;67.30
80577;DHT22;69937;52.420;10.538;2023-07-20T23:24:20;12.20;67.90
80577;DHT22;69937;52.420;10.538;2023-07-20T23:29:22;12.10;67.30
80577;DHT22;69937;52.420;10.538;2023-07-20T23:34:23;12.00;67.30
80577;DHT22;69937;52.420;10.538;2023-07-20T23:39:24;12.10;68.30
80577;DHT22;69937;52.420;10.538;2023-07-20T23:44:24;12.10;68.70
80577;DHT22;69937;52.420;10.538;2023-07-20T23:49:28;12.20;69.00
80577;DHT22;69937;52.420;10.538;2023-07-20T23:54:28;12.20;68.90
80577;DHT22;69937;52.420;10.538;2023-07-20T23:59:29;12.30;69.20
